createdAt,value
2023-12-13T00:01:27.461Z,46.03
2023-12-13T00:03:55.077Z,45.62
2023-12-13T00:06:22.494Z,44.80
2023-12-13T00:08:50.309Z,44.28
2023-12-13T00:11:19.161Z,44.97
2023-12-13T00:13:46.990Z,44.70
2023-12-13T00:16:14.709Z,44.46
2023-12-13T00:18:42.386Z,45.86
2023-12-13T00:21:10.508Z,45.10
2023-12-13T00:23:37.942Z,45.46
2023-12-13T00:26:05.740Z,44.75
2023-12-13T00:28:36.119Z,45.22
2023-12-13T00:31:03.736Z,45.68
2023-12-13T00:33:31.216Z,45.33
2023-12-13T00:35:58.942Z,45.25
2023-12-13T00:38:26.539Z,45.77
2023-12-13T00:40:53.813Z,45.53
2023-12-13T00:43:22.720Z,44.48
2023-12-13T00:45:51.581Z,44.42
2023-12-13T00:48:19.373Z,44.52
2023-12-13T00:50:46.934Z,44.30
2023-12-13T00:53:14.402Z,45.67
2023-12-13T00:55:42.867Z,45.26
2023-12-13T00:58:10.357Z,44.26
2023-12-13T01:00:38.131Z,45.21
2023-12-13T01:03:06.985Z,45.75
2023-12-13T01:05:34.538Z,45.06
2023-12-13T01:08:01.951Z,45.47
2023-12-13T01:10:29.520Z,44.98
2023-12-13T01:12:57.029Z,44.16
2023-12-13T01:15:24.523Z,45.56
2023-12-13T01:17:52.009Z,45.18
2023-12-13T01:20:20.817Z,45.75
2023-12-13T01:22:48.277Z,44.94
2023-12-13T01:25:16.020Z,44.76
2023-12-13T01:27:43.892Z,43.78
2023-12-13T01:30:11.688Z,45.19
2023-12-13T01:32:39.349Z,43.91
2023-12-13T01:35:07.648Z,44.28
2023-12-13T01:37:36.718Z,45.44
2023-12-13T01:40:06.611Z,43.75
2023-12-13T01:42:34.123Z,44.20
2023-12-13T01:45:01.770Z,44.41
2023-12-13T01:47:29.440Z,43.58
2023-12-13T01:49:56.792Z,44.29
2023-12-13T01:52:24.681Z,43.88
2023-12-13T01:54:53.728Z,44.87
2023-12-13T01:57:21.654Z,43.74
2023-12-13T01:59:49.323Z,44.63
2023-12-13T02:02:16.645Z,44.08
2023-12-13T02:04:45.916Z,44.85
2023-12-13T02:07:15.034Z,43.53
2023-12-13T02:09:42.554Z,45.21
2023-12-13T02:12:11.509Z,44.14
2023-12-13T02:14:39.103Z,43.50
2023-12-13T02:17:06.639Z,45.17
2023-12-13T02:19:37.185Z,44.44
2023-12-13T02:22:08.380Z,43.78
2023-12-13T02:24:40.429Z,45.02
2023-12-13T02:27:08.071Z,43.87
2023-12-13T02:29:35.784Z,43.97
2023-12-13T02:32:03.426Z,44.44
2023-12-13T02:34:30.721Z,44.76
2023-12-13T02:36:58.281Z,43.33
2023-12-13T02:39:27.618Z,43.44
2023-12-13T02:41:55.391Z,43.90
2023-12-13T02:44:22.980Z,44.08
2023-12-13T02:46:50.922Z,43.49
2023-12-13T02:49:18.537Z,43.76
2023-12-13T02:51:46.191Z,43.82
2023-12-13T02:54:13.538Z,44.43
2023-12-13T02:56:42.455Z,44.28
2023-12-13T02:59:10.040Z,44.24
2023-12-13T03:01:37.478Z,44.69
2023-12-13T03:04:05.715Z,43.17
2023-12-13T03:06:33.204Z,43.84
2023-12-13T03:09:00.666Z,44.14
2023-12-13T03:11:29.111Z,44.39
2023-12-13T03:13:58.044Z,44.08
2023-12-13T03:16:25.966Z,44.14
2023-12-13T03:18:53.541Z,44.40
2023-12-13T03:21:20.931Z,42.90
2023-12-13T03:23:48.398Z,43.30
2023-12-13T03:26:15.808Z,44.35
2023-12-13T03:28:43.279Z,42.81
2023-12-13T03:31:12.351Z,44.75
2023-12-13T03:33:39.940Z,42.82
2023-12-13T03:36:14.073Z,44.30
2023-12-13T03:38:41.581Z,42.86
2023-12-13T03:41:09.069Z,43.97
2023-12-13T03:43:36.833Z,43.83
2023-12-13T03:46:05.627Z,43.35
2023-12-13T03:48:34.585Z,42.97
2023-12-13T03:51:02.892Z,44.18
2023-12-13T03:53:30.558Z,44.19
2023-12-13T03:55:58.369Z,42.53
2023-12-13T03:58:25.912Z,44.04
2023-12-13T04:00:53.430Z,42.94
2023-12-13T04:03:20.995Z,43.00
2023-12-13T04:05:49.937Z,42.48
2023-12-13T04:08:17.456Z,42.94
2023-12-13T04:10:44.989Z,43.11
2023-12-13T04:13:12.427Z,42.80
2023-12-13T04:15:40.435Z,43.61
2023-12-13T04:18:07.949Z,42.92
2023-12-13T04:20:35.451Z,43.08
2023-12-13T04:23:04.315Z,43.21
2023-12-13T04:25:32.186Z,43.61
2023-12-13T04:27:59.700Z,42.27
2023-12-13T04:30:27.138Z,42.55
2023-12-13T04:32:54.759Z,43.07
2023-12-13T04:35:22.253Z,42.89
2023-12-13T04:37:50.389Z,42.25
2023-12-13T04:40:19.367Z,44.20
2023-12-13T04:42:46.850Z,43.51
2023-12-13T04:45:14.837Z,43.32
2023-12-13T04:47:42.352Z,42.54
2023-12-13T04:50:10.878Z,43.50
2023-12-13T04:52:38.503Z,43.27
2023-12-13T04:55:06.500Z,43.86
2023-12-13T04:57:35.649Z,43.32
2023-12-13T05:00:06.489Z,42.66
2023-12-13T05:02:34.008Z,43.80
2023-12-13T05:05:01.631Z,43.67
2023-12-13T05:07:29.824Z,43.37
2023-12-13T05:09:57.366Z,42.79
2023-12-13T05:12:24.976Z,42.72
2023-12-13T05:14:53.720Z,43.78
2023-12-13T05:17:21.297Z,43.94
2023-12-13T05:19:48.706Z,42.97
2023-12-13T05:22:16.212Z,42.87
2023-12-13T05:24:43.911Z,43.07
2023-12-13T05:27:11.411Z,44.16
2023-12-13T05:29:38.942Z,42.74
2023-12-13T05:32:07.981Z,42.62
2023-12-13T05:34:35.508Z,43.99
2023-12-13T05:37:06.954Z,43.55
2023-12-13T05:39:34.687Z,44.17
2023-12-13T05:42:02.528Z,43.03
2023-12-13T05:44:30.650Z,43.43
2023-12-13T05:46:58.267Z,43.88
2023-12-13T05:49:27.340Z,42.69
2023-12-13T05:51:54.865Z,42.21
2023-12-13T05:54:22.310Z,42.91
2023-12-13T05:56:49.930Z,42.46
2023-12-13T05:59:17.481Z,43.59
2023-12-13T06:01:44.928Z,42.72
2023-12-13T06:04:12.618Z,42.84
2023-12-13T06:06:45.863Z,43.20
2023-12-13T06:09:13.812Z,43.76
2023-12-13T06:11:41.203Z,42.28
2023-12-13T06:14:08.877Z,43.02
2023-12-13T06:16:36.522Z,42.91
2023-12-13T06:19:04.046Z,43.65
2023-12-13T06:21:32.319Z,42.26
2023-12-13T06:24:02.261Z,43.78
2023-12-13T06:26:29.730Z,43.29
2023-12-13T06:28:57.141Z,42.19
2023-12-13T06:31:24.588Z,43.31
2023-12-13T06:33:52.127Z,42.94
2023-12-13T06:36:20.929Z,44.13
2023-12-13T06:38:48.525Z,43.74
2023-12-13T06:41:17.130Z,42.51
2023-12-13T06:43:44.661Z,42.86
2023-12-13T06:46:12.025Z,42.58
2023-12-13T06:48:39.747Z,44.09
2023-12-13T06:51:08.698Z,43.46
2023-12-13T06:53:38.667Z,43.71
2023-12-13T06:56:07.179Z,43.38
2023-12-13T06:58:36.773Z,42.72
2023-12-13T07:01:05.394Z,42.48
2023-12-13T07:03:32.918Z,42.17
2023-12-13T07:06:00.317Z,43.43
2023-12-13T07:08:27.805Z,42.59
2023-12-13T07:10:55.345Z,43.79
2023-12-13T07:13:22.617Z,42.77
2023-12-13T07:15:51.528Z,43.04
2023-12-13T07:18:22.022Z,43.86
2023-12-13T07:20:49.502Z,44.65
2023-12-13T07:23:16.894Z,44.26
2023-12-13T07:25:44.606Z,43.36
2023-12-13T07:28:14.768Z,44.32
2023-12-13T07:30:48.252Z,43.88
2023-12-13T07:33:21.442Z,43.00
2023-12-13T07:35:49.105Z,42.17
2023-12-13T07:38:16.681Z,41.42
2023-12-13T07:40:47.841Z,39.72
2023-12-13T07:43:15.544Z,39.88
2023-12-13T07:45:43.551Z,38.84
2023-12-13T07:48:21.404Z,38.07
2023-12-13T07:50:56.630Z,37.83
2023-12-13T07:53:24.249Z,37.83
2023-12-13T07:55:51.928Z,37.61
2023-12-13T07:58:19.795Z,37.43
2023-12-13T08:00:48.236Z,37.92
2023-12-13T08:03:15.894Z,37.74
2023-12-13T08:05:43.750Z,37.97
2023-12-13T08:08:12.745Z,38.19
2023-12-13T08:10:42.024Z,37.47
2023-12-13T08:13:09.623Z,36.89
2023-12-13T08:15:37.145Z,37.30
2023-12-13T08:18:04.670Z,37.31
2023-12-13T08:20:32.145Z,37.23
2023-12-13T08:22:59.858Z,38.06
2023-12-13T08:25:28.711Z,37.61
2023-12-13T08:27:56.258Z,37.81
2023-12-13T08:30:23.798Z,37.65
2023-12-13T08:32:51.271Z,38.12
2023-12-13T08:35:18.749Z,38.09
2023-12-13T08:37:46.161Z,37.68
2023-12-13T08:40:14.185Z,37.64
2023-12-13T08:42:45.678Z,37.23
2023-12-13T08:45:14.032Z,37.81
2023-12-13T08:47:41.678Z,37.49
2023-12-13T08:50:09.734Z,38.21
2023-12-13T08:52:37.310Z,38.01
2023-12-13T08:55:05.233Z,37.75
2023-12-13T08:57:33.152Z,37.51
2023-12-13T09:00:08.908Z,37.48
2023-12-13T09:02:38.606Z,37.79
2023-12-13T09:05:07.325Z,38.00
2023-12-13T09:07:35.174Z,37.66
2023-12-13T09:10:04.532Z,37.23
2023-12-13T09:12:32.114Z,37.10
2023-12-13T09:14:59.960Z,37.49
2023-12-13T09:17:29.105Z,37.37
2023-12-13T09:19:56.868Z,37.25
2023-12-13T09:22:24.399Z,37.04
2023-12-13T09:24:51.859Z,36.88
2023-12-13T09:27:19.156Z,37.09
2023-12-13T09:29:46.624Z,37.92
2023-12-13T09:32:14.743Z,37.43
2023-12-13T09:34:43.829Z,37.32
2023-12-13T09:37:11.247Z,36.80
2023-12-13T09:39:38.517Z,37.23
2023-12-13T09:42:06.082Z,37.23
2023-12-13T09:44:37.073Z,37.39
2023-12-13T09:47:05.174Z,37.77
2023-12-13T09:49:38.505Z,37.41
2023-12-13T09:52:09.943Z,36.93
2023-12-13T09:54:42.190Z,37.30
2023-12-13T09:57:09.610Z,37.49
2023-12-13T09:59:37.181Z,37.64
2023-12-13T10:02:09.873Z,37.46
2023-12-13T10:04:38.119Z,37.44
2023-12-13T10:07:06.852Z,37.51
2023-12-13T10:09:35.710Z,37.03
2023-12-13T10:12:05.925Z,37.41
2023-12-13T10:14:35.290Z,37.41
2023-12-13T10:17:11.955Z,37.50
2023-12-13T10:19:45.590Z,37.14
2023-12-13T10:22:13.086Z,37.25
2023-12-13T10:24:43.082Z,37.28
2023-12-13T10:27:11.159Z,37.25
2023-12-13T10:29:38.761Z,37.05
2023-12-13T10:32:06.641Z,36.93
2023-12-13T10:34:34.152Z,36.72
2023-12-13T10:37:02.163Z,36.34
2023-12-13T10:39:31.429Z,37.55
2023-12-13T10:42:01.783Z,36.95
2023-12-13T10:44:35.386Z,37.65
2023-12-13T10:47:09.004Z,36.99
2023-12-13T10:49:36.816Z,37.27
2023-12-13T10:52:07.092Z,37.04
2023-12-13T10:54:36.447Z,37.80
2023-12-13T10:57:05.490Z,37.27
2023-12-13T10:59:34.309Z,36.83
2023-12-13T11:02:03.468Z,37.83
2023-12-13T11:04:31.307Z,36.04
2023-12-13T11:07:06.524Z,35.62
2023-12-13T11:09:49.962Z,37.15
2023-12-13T11:12:22.553Z,37.21
2023-12-13T11:14:51.234Z,38.32
2023-12-13T11:17:19.903Z,38.75
2023-12-13T11:19:48.219Z,39.11
2023-12-13T11:22:15.733Z,39.21
2023-12-13T11:24:43.393Z,39.91
2023-12-13T11:27:13.892Z,40.34
2023-12-13T11:29:46.947Z,39.94
2023-12-13T11:32:16.511Z,39.72
2023-12-13T11:34:49.395Z,39.72
2023-12-13T11:37:17.342Z,40.08
2023-12-13T11:39:45.710Z,39.03
2023-12-13T11:42:15.428Z,39.36
2023-12-13T11:44:43.816Z,38.96
2023-12-13T11:47:14.228Z,38.77
2023-12-13T11:49:43.525Z,39.12
2023-12-13T11:52:11.767Z,39.15
2023-12-13T11:54:40.481Z,38.82
2023-12-13T11:57:16.068Z,38.87
2023-12-13T11:59:44.130Z,38.68
2023-12-13T12:02:17.775Z,39.10
2023-12-13T12:04:45.258Z,39.09
2023-12-13T12:07:14.670Z,39.60
2023-12-13T12:09:42.033Z,39.22
2023-12-13T12:12:10.319Z,39.55
2023-12-13T12:14:37.763Z,40.12
2023-12-13T12:17:06.251Z,39.04
2023-12-13T12:19:35.979Z,39.49
2023-12-13T12:22:04.328Z,39.03
2023-12-13T12:24:31.789Z,38.73
2023-12-13T12:27:07.516Z,38.86
2023-12-13T12:29:34.924Z,38.93
2023-12-13T12:32:02.209Z,38.79
2023-12-13T12:34:29.858Z,38.83
2023-12-13T12:36:59.517Z,38.99
2023-12-13T12:39:27.024Z,39.42
2023-12-13T12:41:54.356Z,38.60
2023-12-13T12:44:21.866Z,39.09
2023-12-13T12:46:49.304Z,39.45
2023-12-13T12:49:16.837Z,39.40
2023-12-13T12:51:44.887Z,39.38
2023-12-13T12:54:13.771Z,39.00
2023-12-13T12:56:41.254Z,39.51
2023-12-13T12:59:15.396Z,39.61
2023-12-13T13:01:44.090Z,39.44
2023-12-13T13:04:14.634Z,39.75
2023-12-13T13:06:45.569Z,39.42
2023-12-13T13:09:14.974Z,39.76
2023-12-13T13:11:43.869Z,39.10
2023-12-13T13:14:11.576Z,39.26
2023-12-13T13:16:39.312Z,39.46
2023-12-13T13:19:07.169Z,39.41
2023-12-13T13:21:34.935Z,39.64
2023-12-13T13:24:08.065Z,39.65
2023-12-13T13:26:38.177Z,39.46
2023-12-13T13:29:06.079Z,40.21
2023-12-13T13:31:34.101Z,39.61
2023-12-13T13:34:01.714Z,40.17
2023-12-13T13:36:29.214Z,40.02
2023-12-13T13:38:56.464Z,40.06
2023-12-13T13:41:24.993Z,40.58
2023-12-13T13:43:53.861Z,40.56
2023-12-13T13:46:21.348Z,41.04
2023-12-13T13:48:48.711Z,41.16
2023-12-13T13:51:16.076Z,41.54
2023-12-13T13:53:43.594Z,41.61
2023-12-13T13:56:11.970Z,41.83
2023-12-13T13:58:39.546Z,41.60
2023-12-13T14:01:08.305Z,41.77
2023-12-13T14:03:35.793Z,41.90
2023-12-13T14:06:04.824Z,42.38
2023-12-13T14:08:33.517Z,42.34
2023-12-13T14:11:01.002Z,42.29
2023-12-13T14:13:28.259Z,41.83
2023-12-13T14:15:55.813Z,42.49
2023-12-13T14:18:24.727Z,42.47
2023-12-13T14:20:52.306Z,42.60
2023-12-13T14:23:19.714Z,42.09
2023-12-13T14:25:47.339Z,42.28
2023-12-13T14:28:14.809Z,42.65
2023-12-13T14:30:42.308Z,42.72
2023-12-13T14:33:10.220Z,42.55
2023-12-13T14:35:39.192Z,42.42
2023-12-13T14:38:06.653Z,43.33
2023-12-13T14:40:34.504Z,43.22
2023-12-13T14:43:03.679Z,42.76
2023-12-13T14:45:33.339Z,43.37
2023-12-13T14:48:00.835Z,43.27
2023-12-13T14:50:28.421Z,43.63
2023-12-13T14:52:57.870Z,42.90
2023-12-13T14:55:25.413Z,43.10
2023-12-13T14:57:52.656Z,43.50
2023-12-13T15:00:20.254Z,42.89
2023-12-13T15:02:47.572Z,42.58
2023-12-13T15:05:15.421Z,42.53
2023-12-13T15:07:44.152Z,43.93
2023-12-13T15:10:13.606Z,42.47
2023-12-13T15:12:41.269Z,43.36
2023-12-13T15:15:09.092Z,42.57
2023-12-13T15:17:37.425Z,43.02
2023-12-13T15:20:09.350Z,44.08
2023-12-13T15:22:37.913Z,43.46
2023-12-13T15:25:11.833Z,43.27
2023-12-13T15:27:44.022Z,43.88
2023-12-13T15:30:12.578Z,44.62
2023-12-13T15:32:42.473Z,44.04
2023-12-13T15:35:11.629Z,43.18
2023-12-13T15:37:39.477Z,43.59
2023-12-13T15:40:09.954Z,43.87
2023-12-13T15:42:37.398Z,43.65
2023-12-13T15:45:08.901Z,44.47
2023-12-13T15:47:37.871Z,42.97
2023-12-13T15:50:07.406Z,44.39
2023-12-13T15:52:38.497Z,44.59
2023-12-13T15:55:07.238Z,44.10
2023-12-13T15:57:35.522Z,44.04
2023-12-13T16:00:03.660Z,43.85
2023-12-13T16:02:41.168Z,42.88
2023-12-13T16:05:14.599Z,43.08
2023-12-13T16:07:44.734Z,44.49
2023-12-13T16:10:14.298Z,43.51
2023-12-13T16:12:42.529Z,43.04
2023-12-13T16:15:10.060Z,43.95
2023-12-13T16:17:37.836Z,44.58
2023-12-13T16:20:11.338Z,45.33
2023-12-13T16:22:39.055Z,44.91
2023-12-13T16:25:07.633Z,45.38
2023-12-13T16:27:35.340Z,45.58
2023-12-13T16:30:02.962Z,44.98
2023-12-13T16:32:31.130Z,44.74
2023-12-13T16:34:58.916Z,46.14
2023-12-13T16:37:34.422Z,45.49
2023-12-13T16:40:01.977Z,44.95
2023-12-13T16:42:29.482Z,45.08
2023-12-13T16:44:56.924Z,44.74
2023-12-13T16:47:24.312Z,45.76
2023-12-13T16:49:51.867Z,44.78
2023-12-13T16:52:19.181Z,44.20
2023-12-13T16:54:50.015Z,44.96
2023-12-13T16:57:17.729Z,44.57
2023-12-13T16:59:45.452Z,44.24
2023-12-13T17:02:13.806Z,44.99
2023-12-13T17:04:41.475Z,44.21
2023-12-13T17:07:08.992Z,43.48
2023-12-13T17:09:36.520Z,43.88
2023-12-13T17:12:05.589Z,42.78
2023-12-13T17:14:33.515Z,44.51
2023-12-13T17:17:03.771Z,42.97
2023-12-13T17:19:31.364Z,44.23
2023-12-13T17:21:58.941Z,44.39
2023-12-13T17:24:32.402Z,44.68
2023-12-13T17:27:00.064Z,43.60
2023-12-13T17:29:37.383Z,44.75
2023-12-13T17:32:06.096Z,44.07
2023-12-13T17:34:34.971Z,43.85
2023-12-13T17:37:02.614Z,43.63
2023-12-13T17:39:30.189Z,43.92
2023-12-13T17:41:57.854Z,43.48
2023-12-13T17:44:27.298Z,43.47
2023-12-13T17:46:57.980Z,44.39
2023-12-13T17:49:25.746Z,44.29
2023-12-13T17:51:53.273Z,44.50
2023-12-13T17:54:20.774Z,44.38
2023-12-13T17:56:48.201Z,44.00
2023-12-13T17:59:15.893Z,44.53
2023-12-13T18:01:45.670Z,45.41
2023-12-13T18:04:14.668Z,44.18
2023-12-13T18:06:42.221Z,45.12
2023-12-13T18:09:10.673Z,44.88
2023-12-13T18:11:38.243Z,45.63
2023-12-13T18:14:05.815Z,44.19
2023-12-13T18:16:33.352Z,44.48
2023-12-13T18:19:00.904Z,44.91
2023-12-13T18:21:29.549Z,45.23
2023-12-13T18:23:57.194Z,44.46
2023-12-13T18:26:24.423Z,45.07
2023-12-13T18:28:51.918Z,46.03
2023-12-13T18:31:19.487Z,45.35
2023-12-13T18:33:47.163Z,44.41
2023-12-13T18:36:14.541Z,45.32
2023-12-13T18:38:43.346Z,45.38
2023-12-13T18:41:11.078Z,44.77
2023-12-13T18:43:38.944Z,44.65
2023-12-13T18:46:06.750Z,44.59
2023-12-13T18:48:34.358Z,44.11
2023-12-13T18:51:02.934Z,45.29
2023-12-13T18:53:32.307Z,45.05
2023-12-13T18:56:02.027Z,44.03
2023-12-13T18:58:31.132Z,44.91
2023-12-13T19:00:58.684Z,45.24
2023-12-13T19:03:26.126Z,44.89
2023-12-13T19:05:53.977Z,44.87
2023-12-13T19:08:21.491Z,45.81
2023-12-13T19:10:48.918Z,45.37
2023-12-13T19:13:17.840Z,43.92
2023-12-13T19:15:45.359Z,43.80
2023-12-13T19:18:12.821Z,45.08
2023-12-13T19:20:40.331Z,44.99
2023-12-13T19:23:07.963Z,45.10
2023-12-13T19:25:35.695Z,43.86
2023-12-13T19:28:04.100Z,44.01
2023-12-13T19:30:32.969Z,45.47
2023-12-13T19:33:00.603Z,45.54
2023-12-13T19:35:27.984Z,43.64
2023-12-13T19:37:55.575Z,44.31
2023-12-13T19:40:23.094Z,44.42
2023-12-13T19:42:51.809Z,44.42
2023-12-13T19:45:19.461Z,44.24
2023-12-13T19:47:51.581Z,44.27
2023-12-13T19:50:19.265Z,45.13
2023-12-13T19:52:46.776Z,44.84
2023-12-13T19:55:14.469Z,44.76
2023-12-13T19:57:42.002Z,45.82
2023-12-13T20:00:10.364Z,44.57
2023-12-13T20:02:41.057Z,45.28
2023-12-13T20:05:10.005Z,44.64
2023-12-13T20:07:37.927Z,44.84
2023-12-13T20:10:06.476Z,45.40
2023-12-13T20:12:34.065Z,45.50
2023-12-13T20:15:01.516Z,44.00
2023-12-13T20:17:29.309Z,44.46
2023-12-13T20:19:56.797Z,45.21
2023-12-13T20:22:26.081Z,44.28
2023-12-13T20:24:53.915Z,44.38
2023-12-13T20:27:21.535Z,45.30
2023-12-13T20:29:51.608Z,45.02
2023-12-13T20:32:19.241Z,44.27
2023-12-13T20:34:46.694Z,44.45
2023-12-13T20:37:14.337Z,43.91
2023-12-13T20:39:43.204Z,44.26
2023-12-13T20:42:11.774Z,44.14
2023-12-13T20:44:39.308Z,44.74
2023-12-13T20:47:06.810Z,44.66
2023-12-13T20:49:34.222Z,43.46
2023-12-13T20:52:01.743Z,43.48
2023-12-13T20:54:29.583Z,43.62
2023-12-13T20:56:58.457Z,44.42
2023-12-13T20:59:25.964Z,43.44
2023-12-13T21:01:53.520Z,43.33
2023-12-13T21:04:20.896Z,44.41
2023-12-13T21:06:48.439Z,43.58
2023-12-13T21:09:15.847Z,44.23
2023-12-13T21:11:43.248Z,43.30
2023-12-13T21:14:12.014Z,43.75
2023-12-13T21:16:41.210Z,43.98
2023-12-13T21:19:09.820Z,43.55
2023-12-13T21:21:37.352Z,43.49
2023-12-13T21:24:10.460Z,43.75
2023-12-13T21:26:44.435Z,44.26
2023-12-13T21:29:13.177Z,43.38
2023-12-13T21:31:42.535Z,44.14
2023-12-13T21:34:10.336Z,43.15
2023-12-13T21:36:37.862Z,43.60
2023-12-13T21:39:05.620Z,43.00
2023-12-13T21:41:33.008Z,44.50
2023-12-13T21:44:00.509Z,44.69
2023-12-13T21:46:29.298Z,43.41
2023-12-13T21:48:56.801Z,43.89
2023-12-13T21:51:24.314Z,43.18
2023-12-13T21:53:52.006Z,43.10
2023-12-13T21:56:19.660Z,43.13
2023-12-13T21:58:47.211Z,44.56
2023-12-13T22:01:16.559Z,44.10
2023-12-13T22:03:45.476Z,44.15
2023-12-13T22:06:12.966Z,43.44
2023-12-13T22:08:40.396Z,44.56
2023-12-13T22:11:10.794Z,43.42
2023-12-13T22:13:38.543Z,43.98
2023-12-13T22:16:06.227Z,43.05
2023-12-13T22:18:40.824Z,44.24
2023-12-13T22:21:10.394Z,42.55
2023-12-13T22:23:47.552Z,43.11
2023-12-13T22:26:20.455Z,43.01
2023-12-13T22:28:47.831Z,44.06
2023-12-13T22:31:15.299Z,42.56
2023-12-13T22:33:43.518Z,42.98
2023-12-13T22:36:12.487Z,43.06
2023-12-13T22:38:39.927Z,43.70
2023-12-13T22:41:07.491Z,42.75
2023-12-13T22:43:34.914Z,42.22
2023-12-13T22:46:02.365Z,43.56
2023-12-13T22:48:29.764Z,44.11
2023-12-13T22:50:57.320Z,42.91
2023-12-13T22:53:25.969Z,44.04
2023-12-13T22:55:53.397Z,42.88
2023-12-13T22:58:20.846Z,43.01
2023-12-13T23:00:48.449Z,43.48
2023-12-13T23:03:16.647Z,42.74
2023-12-13T23:05:44.227Z,43.03
2023-12-13T23:08:11.727Z,43.78
2023-12-13T23:10:40.447Z,43.85
2023-12-13T23:13:07.851Z,42.37
2023-12-13T23:15:35.518Z,42.52
2023-12-13T23:18:02.914Z,41.98
2023-12-13T23:20:30.433Z,43.21
2023-12-13T23:22:58.063Z,42.00
2023-12-13T23:25:25.574Z,42.39
2023-12-13T23:27:54.473Z,43.25
2023-12-13T23:30:21.948Z,42.91
2023-12-13T23:32:51.032Z,42.11
2023-12-13T23:35:18.609Z,42.18
2023-12-13T23:37:46.011Z,42.04
2023-12-13T23:40:13.665Z,43.16
2023-12-13T23:42:41.096Z,43.02
2023-12-13T23:45:10.781Z,42.31
2023-12-13T23:47:38.244Z,43.16
2023-12-13T23:50:06.868Z,42.85
2023-12-13T23:52:34.556Z,43.27
2023-12-13T23:55:02.220Z,41.90
2023-12-13T23:57:29.661Z,42.03
2023-12-13T23:59:57.155Z,41.66
